ASN logo
Last updated: 30 November 2021
Statuts:
Date:lundi 11 novembre 2019
Heure:07:43
Type/Sous-type:Silhouette image of generic E145 model; specific model in this crash may look slightly different
Embraer EMB-145LR (ERJ-145LR)
Operated by:Envoy Air
On behalf of:American Eagle
Immatriculation: N619AE
Numéro de série: 145101
Année de Fabrication: 1998
Moteurs: 2 Allison AE3007A1/2
Equipage:victimes: 0 / à bord: 3
Passagers:victimes: 0 / à bord: 38
Total:victimes: 0 / à bord: 41
Dégats de l'appareil: Inconnu
Lieu de l'accident:Chicago-O'Hare International Airport, IL (ORD) (   Etats-Unis d'Amérique)
Phase de vol: A l'atterrissage (LDG)
Nature:Transport de Passagers Nat.
Aéroport de départ:Greensboro/High Point Airport, NC (GSO/KGSO), Etats-Unis d'Amérique
Aéroport de destination:Chicago-O'Hare International Airport, IL (ORD/KORD), Etats-Unis d'Amérique
Numéro de vol:AA4125
Détails:
American Airlines flight 4125 slid off the runway on landing at Chicago-O'Hare International Airport, Illinois, USA.
The aircraft landed on runway 10L and slid off the left side of the runway about 1600 m past the threshold near taxiway N1. The aircraft swung and came to rest with the right-hand wing tip in the snow.

Accident investigation:
Investigating agency: NTSB
Status: Investigation ongoing
Accident number: DCA20LA013

METAR Weather report:
12:51 UTC / 06:51 local time:
KORD 111251Z 35016G22KT 1SM R10L/5000VP6000FT -SN BLSN VV011 M04/M06 A3019 RMK AO2 PK WND 35027/1211 SLP232 P0001 T10441061 $

13:02 UTC / 07:02 local time:
KORD 111302Z 35013G25KT 3/4SM R10L/4000V5500FT -SN BLSN VV010 M05/M06 A3019 RMK AO2 P0001 T10501061 $

13:51 UTC / 07:51 local time:
KORD 111351Z 35017G26KT 3/4SM R10L/4000V5000FT -SN BLSN VV011 M05/M06 A3022 RMK AO2 PK WND 35028/1331 SLP240 P0001 T10501061 $


Photos

photo of Embraer-EMB-145LR-N619AE
 

Video, social media

Plan
This map shows the airport of departure and the intended destination of the flight. The line is connecting ADS-B datapoints from Flightradar24.
La distance entre Greensboro/High Point Airport, NC et Chicago-O'Hare International Airport, IL est de 942 km (589 miles).
Accident location: Exact; deduced from official accident report.

Les informations ci-dessus ne représentent pas l'opinion de la 'Flight Safety Foundation' ou de 'Aviation Safety Network' sur les causes de l'accident. Ces informations prélimimaires sont basées sur les faits tel qu'ils sont connus à ce jour.
languages: languages

Share